This is the latest recevied weather packets stored in our database for station/object DL9SEC-13. If no packets are shown the sender has not sent any weather packets the latest 1 day(s).
| Time | Temp. | Humidity | Pressure | Rain* | Wind** | Luminosity | Snow |
|---|---|---|---|---|---|---|---|
| 1778005503 | 13.89° C | 91% | 1011 hPa | 0.76 mm | 0 m/s | - | - |
| 1778004603 | 14.44° C | 89% | 1011 hPa | 0 mm | 0 m/s | - | - |
| 1778003702 | 15° C | 86% | 1010.9 hPa | 0 mm | 0.45 m/s, 292° | - | - |
| 1778002804 | 15° C | 86% | 1010.7 hPa | 0 mm | 0 m/s | - | - |
| 1778001903 | 16.11° C | 80% | 1010.7 hPa | 0 mm | 0.45 m/s, 292° | - | - |
| 1778001003 | 18.33° C | 78% | 1010.5 hPa | 0 mm | 0 m/s | - | - |
| 1778000103 | 18.33° C | 69% | 1010.5 hPa | 0 mm | 0.89 m/s, 292° | - | - |
| 1777999203 | 16.67° C | 76% | 1010.6 hPa | 0 mm | 0 m/s | - | - |
| 1777998303 | 16.11° C | 80% | 1010.5 hPa | 0 mm | 0.45 m/s, 292° | - | - |
| 1777997403 | 16.11° C | 80% | 1010.6 hPa | 0 mm | 1.34 m/s, 315° | - | - |
| 1777996503 | 16.11° C | 81% | 1010.6 hPa | 0 mm | 0 m/s | - | - |
| 1777995603 | 16.67° C | 82% | 1010.8 hPa | 0 mm | 0.89 m/s, 90° | - | - |
| 1777994703 | 15° C | 87% | 1010.9 hPa | 0 mm | 0.89 m/s, 270° | - | - |
| 1777993803 | 14.44° C | 89% | 1011.1 hPa | 0 mm | 1.79 m/s, 292° | - | - |
| 1777992902 | 14.44° C | 90% | 1011.3 hPa | 0 mm | 0.45 m/s, 248° | - | - |
| 1777992003 | 13.89° C | 91% | 1011.5 hPa | 0.25 mm | 0.89 m/s, 270° | - | - |
| 1777991103 | 14.44° C | 91% | 1011.6 hPa | 0.25 mm | 1.34 m/s, 292° | - | - |
| 1777990203 | 14.44° C | 91% | 1011.7 hPa | 1.02 mm | 2.68 m/s, 248° | - | - |
| 1777989303 | 14.44° C | 91% | 1011.9 hPa | 0.76 mm | 1.34 m/s, 270° | - | - |
| 1777988403 | 15° C | 89% | 1011.9 hPa | 3.05 mm | 3.13 m/s, 270° | - | - |
| 1777987503 | 15° C | 89% | 1011.6 hPa | 3.05 mm | 0.89 m/s, 315° | - | - |
| 1777986603 | 15° C | 90% | 1011.5 hPa | 3.05 mm | 0.89 m/s, 90° | - | - |
| 1777985703 | 16.67° C | 86% | 1011.2 hPa | 0.76 mm | 0 m/s | - | - |
| 1777984802 | 18.33° C | 74% | 1011.1 hPa | 0 mm | 0 m/s | - | - |
| 1777983902 | 18.89° C | 63% | 1010.8 hPa | 0 mm | 0.45 m/s, 270° | - | - |
* Rain latest hour (hover to see other rain measurements)
** Current wind speed in m/s (hover to see current wind gust speed)